PWSweather.com
Personal Weather Stations
Station Observations
CANDIOTINO
Barrio Candioti Norte, Santa FeAR 3000

Barrio Candioti NorteSanta FeAR 3000

Lat: -31.632778, Lon: -60.695556

Elevation: 69

Station Type: WH-1081

http://www.eltiempoensantafe.com.ar

High Low Average
Temperature 99.7°F37.6°C 79.3°F26.3°C 89.6°F32.0°C
Dew Point 77.0°F25.0°C 70.0°F21.1°C 73.6°F23.1°C
Winds 10.7 mph 17.2 kmh 1.6 mph 2.6 kmh 4.0 mph ENE6.4 kmh ENE
Wind Gusts 18.3 mph29.5 kmh 4.5 mph7.2 kmh 10.0 mph16.1 kmh
Humidity 82% 41% 61%
Pressure 29.76 in1007.8 mb 29.65 in1004.1 mb -
Precipitation 0.00 in0.0 mm - -
Hour Temp Dew Point Humidity Winds Wind Gusts Pressure Precip Precip Rate Daily Precip Total
12:00 AM 86.0°F30.0°C 73.8°F23.2°C 67% 3.8 mph N6.1 kmh N 9.2 mph14.8 kmh 29.65 in1004.1 mb 0.00 in0.0 mm 0.00 in0.0 mm 0.00 in0.0 mm
12:15 AM 85.6°F29.8°C 73.9°F23.3°C 68% 3.1 mph N5.0 kmh N 6.9 mph11.1 kmh 29.67 in1004.7 mb 0.00 in0.0 mm 0.00 in0.0 mm 0.00 in0.0 mm
12:30 AM 85.1°F29.5°C 73.8°F23.2°C 69% 1.6 mph N2.6 kmh N 6.0 mph9.7 kmh 29.65 in1004.1 mb 0.00 in0.0 mm 0.00 in0.0 mm 0.00 in0.0 mm
12:45 AM 84.4°F29.1°C 74.0°F23.3°C 71% 3.1 mph N5.0 kmh N 7.6 mph12.2 kmh 29.66 in1004.4 mb 0.00 in0.0 mm 0.00 in0.0 mm 0.00 in0.0 mm
01:00 AM 84.2°F29.0°C 73.8°F23.2°C 71% 2.2 mph N3.5 kmh N 5.4 mph8.7 kmh 29.66 in1004.4 mb 0.00 in0.0 mm 0.00 in0.0 mm 0.00 in0.0 mm
01:15 AM 83.8°F28.8°C 73.5°F23.1°C 71% 2.2 mph N3.5 kmh N 7.6 mph12.2 kmh 29.66 in1004.4 mb 0.00 in0.0 mm 0.00 in0.0 mm 0.00 in0.0 mm
01:30 AM 83.7°F28.7°C 73.3°F22.9°C 71% 3.8 mph N6.1 kmh N 8.3 mph13.4 kmh 29.67 in1004.7 mb 0.00 in0.0 mm 0.00 in0.0 mm 0.00 in0.0 mm
01:45 AM 83.1°F28.4°C 72.8°F22.7°C 71% 2.2 mph N3.5 kmh N 6.9 mph11.1 kmh 29.67 in1004.7 mb 0.00 in0.0 mm 0.00 in0.0 mm 0.00 in0.0 mm
02:00 AM 82.8°F28.2°C 72.9°F22.7°C 72% 4.5 mph N7.2 kmh N 9.2 mph14.8 kmh 29.66 in1004.4 mb 0.00 in0.0 mm 0.00 in0.0 mm 0.00 in0.0 mm
02:15 AM 82.8°F28.2°C 72.9°F22.7°C 72% 1.6 mph N2.6 kmh N 6.0 mph9.7 kmh 29.67 in1004.7 mb 0.00 in0.0 mm 0.00 in0.0 mm 0.00 in0.0 mm
02:30 AM 82.6°F28.1°C 73.1°F22.8°C 73% 3.8 mph N6.1 kmh N 5.4 mph8.7 kmh 29.67 in1004.7 mb 0.00 in0.0 mm 0.00 in0.0 mm 0.00 in0.0 mm
02:45 AM 82.4°F28.0°C 73.3°F22.9°C 74% 2.2 mph N3.5 kmh N 7.6 mph12.2 kmh 29.67 in1004.7 mb 0.00 in0.0 mm 0.00 in0.0 mm 0.00 in0.0 mm
03:00 AM 82.0°F27.8°C 73.4°F23.0°C 75% 1.6 mph N2.6 kmh N 6.9 mph11.1 kmh 29.68 in1005.1 mb 0.00 in0.0 mm 0.00 in0.0 mm 0.00 in0.0 mm
03:15 AM 81.7°F27.6°C 73.0°F22.8°C 75% 1.6 mph N2.6 kmh N 5.4 mph8.7 kmh 29.68 in1005.1 mb 0.00 in0.0 mm 0.00 in0.0 mm 0.00 in0.0 mm
03:30 AM 81.7°F27.6°C 73.4°F23.0°C 76% 1.6 mph NNE2.6 kmh NNE 6.0 mph9.7 kmh 29.68 in1005.1 mb 0.00 in0.0 mm 0.00 in0.0 mm 0.00 in0.0 mm
03:45 AM 81.5°F27.5°C 73.3°F22.9°C 76% 2.2 mph N3.5 kmh N 6.0 mph9.7 kmh 29.67 in1004.7 mb 0.00 in0.0 mm 0.00 in0.0 mm 0.00 in0.0 mm
04:00 AM 81.5°F27.5°C 73.3°F22.9°C 76% 3.1 mph N5.0 kmh N 5.4 mph8.7 kmh 29.68 in1005.1 mb 0.00 in0.0 mm 0.00 in0.0 mm 0.00 in0.0 mm
04:15 AM 81.5°F27.5°C 73.7°F23.2°C 77% 2.2 mph N3.5 kmh N 6.0 mph9.7 kmh 29.68 in1005.1 mb 0.00 in0.0 mm 0.00 in0.0 mm 0.00 in0.0 mm
04:30 AM 81.3°F27.4°C 73.5°F23.1°C 77% 1.6 mph N2.6 kmh N 4.5 mph7.2 kmh 29.68 in1005.1 mb 0.00 in0.0 mm 0.00 in0.0 mm 0.00 in0.0 mm
04:45 AM 81.1°F27.3°C 73.3°F22.9°C 77% 4.5 mph N7.2 kmh N 6.0 mph9.7 kmh 29.68 in1005.1 mb 0.00 in0.0 mm 0.00 in0.0 mm 0.00 in0.0 mm
05:00 AM 80.8°F27.1°C 73.3°F22.9°C 78% 3.1 mph N5.0 kmh N 6.9 mph11.1 kmh 29.68 in1005.1 mb 0.00 in0.0 mm 0.00 in0.0 mm 0.00 in0.0 mm
05:15 AM 80.6°F27.0°C 73.5°F23.1°C 79% 3.8 mph N6.1 kmh N 7.6 mph12.2 kmh 29.68 in1005.1 mb 0.00 in0.0 mm 0.00 in0.0 mm 0.00 in0.0 mm
05:30 AM 80.6°F27.0°C 73.2°F22.9°C 78% 2.2 mph N3.5 kmh N 5.4 mph8.7 kmh 29.69 in1005.4 mb 0.00 in0.0 mm 0.00 in0.0 mm 0.00 in0.0 mm
05:45 AM 80.4°F26.9°C 73.4°F23.0°C 79% 3.8 mph NNE6.1 kmh NNE 6.9 mph11.1 kmh 29.69 in1005.4 mb 0.00 in0.0 mm 0.00 in0.0 mm 0.00 in0.0 mm
06:00 AM 80.2°F26.8°C 73.6°F23.1°C 80% 6.0 mph N9.7 kmh N 9.8 mph15.8 kmh 29.69 in1005.4 mb 0.00 in0.0 mm 0.00 in0.0 mm 0.00 in0.0 mm
06:15 AM 79.9°F26.6°C 73.2°F22.9°C 80% 3.1 mph N5.0 kmh N 10.7 mph17.2 kmh 29.69 in1005.4 mb 0.00 in0.0 mm 0.00 in0.0 mm 0.00 in0.0 mm
06:30 AM 79.5°F26.4°C 73.6°F23.1°C 82% 3.8 mph N6.1 kmh N 9.8 mph15.8 kmh 29.69 in1005.4 mb 0.00 in0.0 mm 0.00 in0.0 mm 0.00 in0.0 mm
06:45 AM 79.3°F26.3°C 73.4°F23.0°C 82% 3.1 mph N5.0 kmh N 7.6 mph12.2 kmh 29.70 in1005.8 mb 0.00 in0.0 mm 0.00 in0.0 mm 0.00 in0.0 mm
07:00 AM 79.5°F26.4°C 73.6°F23.1°C 82% 4.5 mph NNE7.2 kmh NNE 9.2 mph14.8 kmh 29.71 in1006.1 mb 0.00 in0.0 mm 0.00 in0.0 mm 0.00 in0.0 mm
07:15 AM 80.2°F26.8°C 73.6°F23.1°C 80% 3.8 mph N6.1 kmh N 6.9 mph11.1 kmh 29.72 in1006.4 mb 0.00 in0.0 mm 0.00 in0.0 mm 0.00 in0.0 mm
07:30 AM 80.8°F27.1°C 73.0°F22.8°C 77% 4.5 mph N7.2 kmh N 9.8 mph15.8 kmh 29.73 in1006.8 mb 0.00 in0.0 mm 0.00 in0.0 mm 0.00 in0.0 mm
07:45 AM 82.0°F27.8°C 73.4°F23.0°C 75% 3.8 mph N6.1 kmh N 7.6 mph12.2 kmh 29.73 in1006.8 mb 0.00 in0.0 mm 0.00 in0.0 mm 0.00 in0.0 mm
08:00 AM 83.7°F28.7°C 73.3°F22.9°C 71% 2.2 mph N3.5 kmh N 8.3 mph13.4 kmh 29.73 in1006.8 mb 0.00 in0.0 mm 0.00 in0.0 mm 0.00 in0.0 mm
08:15 AM 84.2°F29.0°C 72.6°F22.6°C 68% 4.5 mph N7.2 kmh N 9.8 mph15.8 kmh 29.73 in1006.8 mb 0.00 in0.0 mm 0.00 in0.0 mm 0.00 in0.0 mm
08:30 AM 85.1°F29.5°C 73.0°F22.8°C 67% 6.9 mph N11.1 kmh N 11.4 mph18.3 kmh 29.74 in1007.1 mb 0.00 in0.0 mm 0.00 in0.0 mm 0.00 in0.0 mm
08:45 AM 85.6°F29.8°C 73.0°F22.8°C 66% 3.1 mph N5.0 kmh N 10.7 mph17.2 kmh 29.74 in1007.1 mb 0.00 in0.0 mm 0.00 in0.0 mm 0.00 in0.0 mm
09:00 AM 86.9°F30.5°C 72.9°F22.7°C 63% 6.9 mph NNE11.1 kmh NNE 13.6 mph21.9 kmh 29.75 in1007.5 mb 0.00 in0.0 mm 0.00 in0.0 mm 0.00 in0.0 mm
09:15 AM 88.9°F31.6°C 72.8°F22.7°C 59% 6.9 mph NNE11.1 kmh NNE 14.5 mph23.3 kmh 29.74 in1007.1 mb 0.00 in0.0 mm 0.00 in0.0 mm 0.00 in0.0 mm
09:30 AM 90.0°F32.2°C 73.3°F22.9°C 58% 4.5 mph NE7.2 kmh NE 9.2 mph14.8 kmh 29.75 in1007.5 mb 0.00 in0.0 mm 0.00 in0.0 mm 0.00 in0.0 mm
09:45 AM 90.5°F32.5°C 74.3°F23.5°C 59% 5.4 mph NE8.7 kmh NE 9.8 mph15.8 kmh 29.75 in1007.5 mb 0.00 in0.0 mm 0.00 in0.0 mm 0.00 in0.0 mm
10:00 AM 91.4°F33.0°C 75.1°F23.9°C 59% 3.1 mph NE5.0 kmh NE 9.8 mph15.8 kmh 29.76 in1007.8 mb 0.00 in0.0 mm 0.00 in0.0 mm 0.00 in0.0 mm
10:15 AM 91.9°F33.3°C 74.6°F23.7°C 57% 3.1 mph NNE5.0 kmh NNE 7.6 mph12.2 kmh 29.76 in1007.8 mb 0.00 in0.0 mm 0.00 in0.0 mm 0.00 in0.0 mm
10:30 AM 91.6°F33.1°C 74.3°F23.5°C 57% 2.2 mph ENE3.5 kmh ENE 9.2 mph14.8 kmh 29.76 in1007.8 mb 0.00 in0.0 mm 0.00 in0.0 mm 0.00 in0.0 mm
10:45 AM 93.0°F33.9°C 74.5°F23.6°C 55% 4.5 mph NE7.2 kmh NE 9.2 mph14.8 kmh 29.76 in1007.8 mb 0.00 in0.0 mm 0.00 in0.0 mm 0.00 in0.0 mm
11:00 AM 92.7°F33.7°C 74.2°F23.4°C 55% 3.8 mph ENE6.1 kmh ENE 12.1 mph19.5 kmh 29.76 in1007.8 mb 0.00 in0.0 mm 0.00 in0.0 mm 0.00 in0.0 mm
11:15 AM 95.0°F35.0°C 74.1°F23.4°C 51% 6.0 mph NE9.7 kmh NE 10.7 mph17.2 kmh 29.76 in1007.8 mb 0.00 in0.0 mm 0.00 in0.0 mm 0.00 in0.0 mm
11:30 AM 94.3°F34.6°C 73.5°F23.1°C 51% 3.8 mph NE6.1 kmh NE 10.7 mph17.2 kmh 29.76 in1007.8 mb 0.00 in0.0 mm 0.00 in0.0 mm 0.00 in0.0 mm
11:45 AM 96.3°F35.7°C 74.1°F23.4°C 49% 6.9 mph NE11.1 kmh NE 10.7 mph17.2 kmh 29.76 in1007.8 mb 0.00 in0.0 mm 0.00 in0.0 mm 0.00 in0.0 mm
12:00 PM 95.7°F35.4°C 73.6°F23.1°C 49% 8.3 mph NE13.4 kmh NE 10.7 mph17.2 kmh 29.75 in1007.5 mb 0.00 in0.0 mm 0.00 in0.0 mm 0.00 in0.0 mm
12:15 PM 95.5°F35.3°C 70.9°F21.6°C 45% 6.0 mph NE9.7 kmh NE 14.5 mph23.3 kmh 29.75 in1007.5 mb 0.00 in0.0 mm 0.00 in0.0 mm 0.00 in0.0 mm
12:30 PM 96.3°F35.7°C 70.9°F21.6°C 44% 3.8 mph NNE6.1 kmh NNE 17.4 mph28.0 kmh 29.74 in1007.1 mb 0.00 in0.0 mm 0.00 in0.0 mm 0.00 in0.0 mm
12:45 PM 96.6°F35.9°C 71.2°F21.8°C 44% 6.0 mph NNE9.7 kmh NNE 15.9 mph25.6 kmh 29.74 in1007.1 mb 0.00 in0.0 mm 0.00 in0.0 mm 0.00 in0.0 mm
01:00 PM 97.0°F36.1°C 70.2°F21.2°C 42% 9.8 mph N15.8 kmh N 15.9 mph25.6 kmh 29.74 in1007.1 mb 0.00 in0.0 mm 0.00 in0.0 mm 0.00 in0.0 mm
01:15 PM 97.5°F36.4°C 71.3°F21.8°C 43% 6.0 mph N9.7 kmh N 14.5 mph23.3 kmh 29.73 in1006.8 mb 0.00 in0.0 mm 0.00 in0.0 mm 0.00 in0.0 mm
01:30 PM 97.5°F36.4°C 71.3°F21.8°C 43% 10.7 mph N17.2 kmh N 17.4 mph28.0 kmh 29.73 in1006.8 mb 0.00 in0.0 mm 0.00 in0.0 mm 0.00 in0.0 mm
01:45 PM 98.1°F36.7°C 71.1°F21.7°C 42% 4.5 mph N7.2 kmh N 18.3 mph29.5 kmh 29.72 in1006.4 mb 0.00 in0.0 mm 0.00 in0.0 mm 0.00 in0.0 mm
02:00 PM 96.8°F36.0°C 70.0°F21.1°C 42% 5.4 mph N8.7 kmh N 15.2 mph24.5 kmh 29.72 in1006.4 mb 0.00 in0.0 mm 0.00 in0.0 mm 0.00 in0.0 mm
02:15 PM 98.1°F36.7°C 73.2°F22.9°C 45% 6.9 mph NNE11.1 kmh NNE 12.1 mph19.5 kmh 29.71 in1006.1 mb 0.00 in0.0 mm 0.00 in0.0 mm 0.00 in0.0 mm
02:30 PM 99.7°F37.6°C 71.9°F22.2°C 41% 6.0 mph NNE9.7 kmh NNE 9.8 mph15.8 kmh 29.71 in1006.1 mb 0.00 in0.0 mm 0.00 in0.0 mm 0.00 in0.0 mm
02:45 PM 98.2°F36.8°C 72.7°F22.6°C 44% 6.0 mph E9.7 kmh E 12.1 mph19.5 kmh 29.70 in1005.8 mb 0.00 in0.0 mm 0.00 in0.0 mm 0.00 in0.0 mm
03:00 PM 99.1°F37.3°C 72.1°F22.3°C 42% 4.5 mph NNE7.2 kmh NNE 13.6 mph21.9 kmh 29.70 in1005.8 mb 0.00 in0.0 mm 0.00 in0.0 mm 0.00 in0.0 mm
03:15 PM 98.8°F37.1°C 72.5°F22.5°C 43% 8.3 mph E13.4 kmh E 13.6 mph21.9 kmh 29.69 in1005.4 mb 0.00 in0.0 mm 0.00 in0.0 mm 0.00 in0.0 mm
03:30 PM 98.6°F37.0°C 72.3°F22.4°C 43% 3.8 mph ENE6.1 kmh ENE 15.9 mph25.6 kmh 29.69 in1005.4 mb 0.00 in0.0 mm 0.00 in0.0 mm 0.00 in0.0 mm
03:45 PM 97.0°F36.1°C 72.9°F22.7°C 46% 7.6 mph E12.2 kmh E 13.6 mph21.9 kmh 29.69 in1005.4 mb 0.00 in0.0 mm 0.00 in0.0 mm 0.00 in0.0 mm
04:00 PM 97.9°F36.6°C 73.0°F22.8°C 45% 7.6 mph E12.2 kmh E 13.6 mph21.9 kmh 29.69 in1005.4 mb 0.00 in0.0 mm 0.00 in0.0 mm 0.00 in0.0 mm
04:15 PM 98.6°F37.0°C 73.0°F22.8°C 44% 6.9 mph NE11.1 kmh NE 11.4 mph18.3 kmh 29.68 in1005.1 mb 0.00 in0.0 mm 0.00 in0.0 mm 0.00 in0.0 mm
04:30 PM 98.6°F37.0°C 73.0°F22.8°C 44% 6.0 mph ENE9.7 kmh ENE 14.5 mph23.3 kmh 29.68 in1005.1 mb 0.00 in0.0 mm 0.00 in0.0 mm 0.00 in0.0 mm
04:45 PM 98.4°F36.9°C 73.5°F23.1°C 45% 6.9 mph E11.1 kmh E 13.6 mph21.9 kmh 29.68 in1005.1 mb 0.00 in0.0 mm 0.00 in0.0 mm 0.00 in0.0 mm
05:00 PM 99.1°F37.3°C 73.5°F23.1°C 44% 3.8 mph NE6.1 kmh NE 11.4 mph18.3 kmh 29.68 in1005.1 mb 0.00 in0.0 mm 0.00 in0.0 mm 0.00 in0.0 mm
05:15 PM 97.5°F36.4°C 74.0°F23.3°C 47% 7.6 mph ENE12.2 kmh ENE 14.5 mph23.3 kmh 29.68 in1005.1 mb 0.00 in0.0 mm 0.00 in0.0 mm 0.00 in0.0 mm
05:30 PM 98.8°F37.1°C 73.2°F22.9°C 44% 4.5 mph NE7.2 kmh NE 13.0 mph20.9 kmh 29.68 in1005.1 mb 0.00 in0.0 mm 0.00 in0.0 mm 0.00 in0.0 mm
05:45 PM 98.2°F36.8°C 74.0°F23.3°C 46% 4.5 mph NE7.2 kmh NE 13.0 mph20.9 kmh 29.67 in1004.7 mb 0.00 in0.0 mm 0.00 in0.0 mm 0.00 in0.0 mm
06:00 PM 99.0°F37.2°C 73.3°F22.9°C 44% 6.0 mph NE9.7 kmh NE 11.4 mph18.3 kmh 29.68 in1005.1 mb 0.00 in0.0 mm 0.00 in0.0 mm 0.00 in0.0 mm
06:15 PM 98.4°F36.9°C 73.5°F23.1°C 45% 3.8 mph ENE6.1 kmh ENE 10.7 mph17.2 kmh 29.68 in1005.1 mb 0.00 in0.0 mm 0.00 in0.0 mm 0.00 in0.0 mm
06:30 PM 99.0°F37.2°C 73.3°F22.9°C 44% 3.8 mph NE6.1 kmh NE 9.2 mph14.8 kmh 29.68 in1005.1 mb 0.00 in0.0 mm 0.00 in0.0 mm 0.00 in0.0 mm
06:45 PM 98.1°F36.7°C 73.8°F23.2°C 46% 4.5 mph NE7.2 kmh NE 10.7 mph17.2 kmh 29.68 in1005.1 mb 0.00 in0.0 mm 0.00 in0.0 mm 0.00 in0.0 mm
07:00 PM 96.8°F36.0°C 74.0°F23.3°C 48% 5.4 mph NE8.7 kmh NE 9.2 mph14.8 kmh 29.68 in1005.1 mb 0.00 in0.0 mm 0.00 in0.0 mm 0.00 in0.0 mm
07:15 PM 95.4°F35.2°C 73.9°F23.3°C 50% 3.8 mph NE6.1 kmh NE 8.3 mph13.4 kmh 29.68 in1005.1 mb 0.00 in0.0 mm 0.00 in0.0 mm 0.00 in0.0 mm
07:30 PM 93.6°F34.2°C 75.0°F23.9°C 55% 3.1 mph ENE5.0 kmh ENE 7.6 mph12.2 kmh 29.68 in1005.1 mb 0.00 in0.0 mm 0.00 in0.0 mm 0.00 in0.0 mm
07:45 PM 91.4°F33.0°C 74.6°F23.7°C 58% 4.5 mph NE7.2 kmh NE 9.2 mph14.8 kmh 29.67 in1004.7 mb 0.00 in0.0 mm 0.00 in0.0 mm 0.00 in0.0 mm
08:00 PM 90.5°F32.5°C 75.8°F24.3°C 62% 1.6 mph ENE2.6 kmh ENE 6.9 mph11.1 kmh 29.68 in1005.1 mb 0.00 in0.0 mm 0.00 in0.0 mm 0.00 in0.0 mm
08:15 PM 90.1°F32.3°C 75.4°F24.1°C 62% 3.8 mph NE6.1 kmh NE 7.6 mph12.2 kmh 29.68 in1005.1 mb 0.00 in0.0 mm 0.00 in0.0 mm 0.00 in0.0 mm
08:30 PM 89.6°F32.0°C 74.9°F23.8°C 62% 4.5 mph NE7.2 kmh NE 6.9 mph11.1 kmh 29.68 in1005.1 mb 0.00 in0.0 mm 0.00 in0.0 mm 0.00 in0.0 mm
08:45 PM 89.2°F31.8°C 75.1°F23.9°C 63% 3.8 mph ENE6.1 kmh ENE 7.6 mph12.2 kmh 29.69 in1005.4 mb 0.00 in0.0 mm 0.00 in0.0 mm 0.00 in0.0 mm
09:00 PM 89.1°F31.7°C 74.9°F23.8°C 63% 3.8 mph NE6.1 kmh NE 7.6 mph12.2 kmh 29.69 in1005.4 mb 0.00 in0.0 mm 0.00 in0.0 mm 0.00 in0.0 mm
09:15 PM 89.1°F31.7°C 74.4°F23.6°C 62% 4.5 mph NE7.2 kmh NE 8.3 mph13.4 kmh 29.69 in1005.4 mb 0.00 in0.0 mm 0.00 in0.0 mm 0.00 in0.0 mm
09:30 PM 88.9°F31.6°C 74.2°F23.4°C 62% 2.2 mph NE3.5 kmh NE 6.9 mph11.1 kmh 29.70 in1005.8 mb 0.00 in0.0 mm 0.00 in0.0 mm 0.00 in0.0 mm
09:45 PM 88.7°F31.5°C 74.6°F23.7°C 63% 3.1 mph NNE5.0 kmh NNE 6.9 mph11.1 kmh 29.70 in1005.8 mb 0.00 in0.0 mm 0.00 in0.0 mm 0.00 in0.0 mm
10:00 PM 88.5°F31.4°C 74.9°F23.8°C 64% 3.1 mph NE5.0 kmh NE 7.6 mph12.2 kmh 29.70 in1005.8 mb 0.00 in0.0 mm 0.00 in0.0 mm 0.00 in0.0 mm
10:15 PM 88.3°F31.3°C 75.2°F24.0°C 65% 2.2 mph NE3.5 kmh NE 6.9 mph11.1 kmh 29.72 in1006.4 mb 0.00 in0.0 mm 0.00 in0.0 mm 0.00 in0.0 mm
10:30 PM 88.3°F31.3°C 75.6°F24.2°C 66% 3.1 mph NE5.0 kmh NE 6.9 mph11.1 kmh 29.72 in1006.4 mb 0.00 in0.0 mm 0.00 in0.0 mm 0.00 in0.0 mm
10:45 PM 88.0°F31.1°C 76.2°F24.6°C 68% 1.6 mph NE2.6 kmh NE 6.0 mph9.7 kmh 29.71 in1006.1 mb 0.00 in0.0 mm 0.00 in0.0 mm 0.00 in0.0 mm
11:00 PM 87.4°F30.8°C 77.0°F25.0°C 71% 2.2 mph NE3.5 kmh NE 5.4 mph8.7 kmh 29.71 in1006.1 mb 0.00 in0.0 mm 0.00 in0.0 mm 0.00 in0.0 mm
11:15 PM 87.3°F30.7°C 76.8°F24.9°C 71% 2.2 mph NE3.5 kmh NE 5.4 mph8.7 kmh 29.71 in1006.1 mb 0.00 in0.0 mm 0.00 in0.0 mm 0.00 in0.0 mm
11:30 PM 86.9°F30.5°C 76.9°F24.9°C 72% 3.1 mph NE5.0 kmh NE 6.0 mph9.7 kmh 29.71 in1006.1 mb 0.00 in0.0 mm 0.00 in0.0 mm 0.00 in0.0 mm
11:45 PM 86.9°F30.5°C 76.9°F24.9°C 72% 1.6 mph NE2.6 kmh NE 6.9 mph11.1 kmh 29.71 in1006.1 mb 0.00 in0.0 mm 0.00 in0.0 mm 0.00 in0.0 mm